Time;durP1;ratioP1;P1;durP2;ratioP2;P2;SDS_P1;SDS_P2;PMS_P1;PMS_P2;Temp;Humidity;BMP_temperature;BMP_pressure;BME280_temperature;BME280_humidity;BME280_pressure;Samples;Min_cycle;Max_cycle;Signal;HPM_P1;HPM_P2
2022/06/14 00:00:55;;;;;;;;;6.00;6.00;;;;;22.19;38.39;101908.59;5053973;28;46467;-84
2022/06/14 00:03:39;;;;;;;;;6.67;5.67;;;;;22.13;39.03;101904.50;5058291;28;45505;-84
2022/06/14 00:06:08;;;;;;;;;4.67;4.67;;;;;22.14;38.81;101917.06;5057967;28;46402;-83
2022/06/14 00:08:33;;;;;;;;;6.00;6.00;;;;;22.06;38.64;101906.78;5058325;28;46273;-85
2022/06/14 00:11:01;;;;;;;;;7.67;7.67;;;;;21.96;38.88;101886.75;5057622;28;45474;-83
2022/06/14 00:13:28;;;;;;;;;6.67;6.00;;;;;22.06;39.38;101914.94;5062252;28;45248;-84
2022/06/14 00:15:54;;;;;;;;;8.00;6.00;;;;;22.03;39.12;101915.16;5057781;28;45560;-84
2022/06/14 00:18:19;;;;;;;;;6.00;6.00;;;;;21.91;38.93;101903.38;5058155;28;46170;-84
2022/06/14 00:20:47;;;;;;;;;6.33;6.33;;;;;21.96;39.08;101918.41;5055433;28;45484;-84
2022/06/14 00:23:12;;;;;;;;;11.00;8.00;;;;;21.89;39.52;101908.03;5056704;28;45485;-85
2022/06/14 00:25:44;;;;;;;;;5.33;5.33;;;;;21.89;39.60;101913.47;5058238;28;45394;-83
2022/06/14 00:28:12;;;;;;;;;7.67;6.00;;;;;21.83;39.26;101905.75;5059137;28;46310;-83
2022/06/14 00:30:39;;;;;;;;;5.00;4.67;;;;;21.84;39.92;101907.47;5057956;28;45472;-84
2022/06/14 00:33:05;;;;;;;;;6.00;6.00;;;;;21.82;39.67;101909.47;5057535;28;45422;-84
2022/06/14 00:35:31;;;;;;;;;5.00;5.00;;;;;21.80;39.64;101918.69;5057881;28;45593;-84
2022/06/14 00:37:56;;;;;;;;;3.67;3.67;;;;;21.68;39.59;101893.28;5057260;28;46356;-84
2022/06/14 00:40:28;;;;;;;;;7.00;5.33;;;;;21.79;39.64;101911.53;5059203;28;45473;-83
2022/06/14 00:42:54;;;;;;;;;4.00;4.00;;;;;21.69;39.34;101901.31;5057171;28;45338;-84
2022/06/14 00:45:22;;;;;;;;;5.00;5.00;;;;;21.72;39.20;101911.09;5057926;28;45459;-84
2022/06/14 00:47:49;;;;;;;;;5.00;5.00;;;;;21.73;41.06;101906.53;5056885;28;47331;-84
2022/06/14 00:50:22;;;;;;;;;5.00;3.67;;;;;21.62;39.33;101893.75;5056675;28;45624;-84
2022/06/14 00:53:02;;;;;;;;;3.33;3.33;;;;;21.61;39.41;101886.56;5057567;28;45406;-84
2022/06/14 00:55:45;;;;;;;;;3.67;3.67;;;;;21.60;39.75;101891.13;5056696;28;45735;-84
2022/06/14 00:58:20;;;;;;;;;4.00;3.67;;;;;21.56;39.36;101886.03;5056581;28;46924;-84
2022/06/14 01:00:51;;;;;;;;;6.00;4.00;;;;;21.59;39.36;101891.25;5040845;28;45569;-84
2022/06/14 01:03:21;;;;;;;;;4.00;3.33;;;;;21.61;39.56;101898.31;5039462;28;45599;-84
2022/06/14 01:06:05;;;;;;;;;4.33;4.33;;;;;21.61;39.95;101892.00;5057601;28;45350;-84
2022/06/14 01:08:31;;;;;;;;;4.67;4.00;;;;;21.65;39.48;101897.09;5052036;28;47945;-84
2022/06/14 01:10:56;;;;;;;;;3.00;3.00;;;;;21.62;39.55;101894.59;5056330;28;45709;-84
2022/06/14 01:13:23;;;;;;;;;3.00;3.00;;;;;21.61;39.83;101894.72;5056684;28;45823;-84
2022/06/14 01:15:50;;;;;;;;;3.33;3.33;;;;;21.53;39.23;101883.56;5057087;28;45684;-84
2022/06/14 01:18:16;;;;;;;;;4.00;4.00;;;;;21.33;39.53;101855.09;5056394;28;46947;-84
2022/06/14 01:20:42;;;;;;;;;5.00;4.00;;;;;21.49;39.54;101880.19;5056619;28;45414;-85
2022/06/14 01:23:11;;;;;;;;;4.00;3.00;;;;;21.55;39.91;101892.47;5055446;28;45349;-84
2022/06/14 01:25:45;;;;;;;;;3.33;3.00;;;;;21.50;39.78;101881.94;5057100;28;45696;-84
2022/06/14 01:28:12;;;;;;;;;4.00;4.00;;;;;21.33;41.57;101861.41;5055988;28;46171;-84
2022/06/14 01:30:43;;;;;;;;;5.67;4.00;;;;;21.47;40.68;101885.75;5053492;28;45613;-84
2022/06/14 01:33:13;;;;;;;;;3.00;3.00;;;;;21.46;40.04;101880.41;5042523;28;45275;-84
2022/06/14 01:35:44;;;;;;;;;4.00;4.00;;;;;21.41;41.46;101883.44;5057347;28;46129;-85
2022/06/14 01:38:13;;;;;;;;;6.00;5.00;;;;;21.42;42.36;101878.88;5056293;28;47383;-85
2022/06/14 01:41:00;;;;;;;;;6.00;5.00;;;;;21.45;40.67;101875.97;5056778;28;45495;-85
2022/06/14 01:44:07;;;;;;;;;3.67;2.00;;;;;21.42;40.71;101879.78;5055122;28;45379;-85
2022/06/14 01:46:43;;;;;;;;;4.00;4.00;;;;;21.39;40.13;101868.22;5056761;28;45479;-84
2022/06/14 01:52:30;;;;;;;;;4.00;4.00;;;;;21.31;40.33;101871.50;5056017;28;45594;-84
2022/06/14 01:55:07;;;;;;;;;4.00;4.00;;;;;21.27;40.24;101873.56;5054240;28;45498;-84
2022/06/14 01:57:40;;;;;;;;;4.00;4.00;;;;;21.22;39.90;101867.59;5056240;28;45702;-84
2022/06/14 02:00:29;;;;;;;;;4.33;3.67;;;;;21.20;40.10;101864.13;5054470;28;46254;-85
2022/06/14 02:06:06;;;;;;;;;3.67;3.67;;;;;21.06;40.23;101840.69;5054268;28;45511;-85
2022/06/14 02:08:39;;;;;;;;;2.33;2.33;;;;;21.17;39.97;101860.78;5056402;28;45515;-84
2022/06/14 02:11:14;;;;;;;;;5.00;4.00;;;;;21.01;40.48;101836.59;5062155;28;46469;-84
2022/06/14 02:13:56;;;;;;;;;3.00;3.00;;;;;20.87;40.26;101821.28;5052147;28;45422;-84
2022/06/14 02:16:45;;;;;;;;;6.00;4.33;;;;;21.03;40.66;101848.19;5057701;28;45441;-84
2022/06/14 02:19:33;;;;;;;;;4.67;4.67;;;;;20.97;40.32;101851.31;5056071;28;45507;-84
2022/06/14 02:22:24;;;;;;;;;4.00;3.67;;;;;20.83;40.39;101826.03;5055718;28;47204;-85
2022/06/14 02:24:55;;;;;;;;;4.00;4.00;;;;;20.63;40.80;101804.91;5054926;28;45716;-85
2022/06/14 02:27:39;;;;;;;;;4.00;4.00;;;;;20.85;40.69;101855.75;5055855;28;45586;-84
2022/06/14 02:30:11;;;;;;;;;3.00;3.00;;;;;20.75;41.11;101850.09;5045708;28;45638;-88
2022/06/14 02:32:43;;;;;;;;;6.00;3.33;;;;;20.66;40.54;101840.75;5061260;28;45458;-87
2022/06/14 02:35:14;;;;;;;;;39.33;34.67;;;;;20.73;40.98;101851.19;5046678;28;46597;-83
2022/06/14 02:38:07;;;;;;;;;8.00;8.00;;;;;20.68;41.11;101853.34;5051879;28;46890;-82
2022/06/14 02:40:39;;;;;;;;;5.33;5.33;;;;;20.61;41.28;101853.75;5054692;28;45320;-81
2022/06/14 02:43:12;;;;;;;;;5.67;5.67;;;;;20.51;41.10;101844.50;5051799;28;46369;-82
2022/06/14 02:45:49;;;;;;;;;5.67;5.67;;;;;20.62;41.53;101846.50;5054265;28;45544;-81
2022/06/14 02:48:20;;;;;;;;;7.33;4.33;;;;;20.41;41.55;101817.16;5054751;28;45359;-81
2022/06/14 02:50:53;;;;;;;;;5.67;5.67;;;;;20.57;41.17;101849.50;5055142;28;45602;-81
2022/06/14 02:53:35;;;;;;;;;4.00;4.00;;;;;20.37;42.20;101823.78;5053913;28;45462;-83
2022/06/14 02:56:15;;;;;;;;;5.00;5.00;;;;;20.54;41.59;101843.41;5055516;28;45474;-84
2022/06/14 02:59:11;;;;;;;;;5.00;5.00;;;;;20.54;42.08;101841.56;5056239;28;45605;-84
2022/06/14 03:01:51;;;;;;;;;5.00;5.00;;;;;20.49;42.60;101815.78;5055622;28;45480;-83
2022/06/14 03:04:31;;;;;;;;;7.33;4.00;;;;;20.49;42.07;101824.78;5054281;28;48337;-83
2022/06/14 03:07:04;;;;;;;;;4.67;4.67;;;;;20.57;41.43;101829.69;5054927;28;45447;-83
2022/06/14 03:09:31;;;;;;;;;4.00;4.00;;;;;20.47;41.15;101806.91;5054461;28;45897;-83
2022/06/14 03:11:57;;;;;;;;;5.00;5.00;;;;;20.59;41.95;101825.03;5056494;28;45749;-83
2022/06/14 03:14:40;;;;;;;;;6.00;6.00;;;;;20.48;42.48;101816.75;5054585;28;45951;-83
2022/06/14 03:17:38;;;;;;;;;5.00;4.00;;;;;20.55;41.43;101826.19;5054668;28;45510;-83
2022/06/14 03:20:03;;;;;;;;;3.00;3.00;;;;;20.31;41.95;101793.53;5047748;28;45461;-83
2022/06/14 03:22:45;;;;;;;;;4.00;4.00;;;;;20.49;41.33;101827.47;5055799;28;45474;-83
2022/06/14 03:25:31;;;;;;;;;4.67;4.00;;;;;20.49;41.18;101832.03;5054803;28;45579;-82
2022/06/14 03:28:06;;;;;;;;;4.00;4.00;;;;;20.47;41.53;101823.16;5053020;28;45762;-83
2022/06/14 03:30:40;;;;;;;;;3.00;2.33;;;;;20.48;42.44;101824.88;5054814;28;45489;-83
2022/06/14 03:33:15;;;;;;;;;0.00;0.00;;;;;20.55;41.15;101829.75;5054888;28;45529;-83
2022/06/14 03:35:43;;;;;;;;;5.33;4.00;;;;;20.53;42.64;101828.13;5063754;28;45558;-84
2022/06/14 03:38:17;;;;;;;;;3.33;3.33;;;;;20.49;40.92;101813.09;5057810;28;45542;-83
2022/06/14 03:40:45;;;;;;;;;5.00;5.00;;;;;20.51;41.29;101821.94;5058440;28;45547;-84
2022/06/14 03:43:11;;;;;;;;;3.00;3.00;;;;;20.39;41.20;101811.00;5058865;28;45490;-83
2022/06/14 03:45:57;;;;;;;;;3.00;3.00;;;;;20.33;42.20;101811.41;5058558;28;47129;-83
2022/06/14 03:48:23;;;;;;;;;4.00;4.00;;;;;20.39;41.92;101816.41;5058575;28;45563;-84
2022/06/14 03:50:59;;;;;;;;;4.00;4.00;;;;;20.43;41.50;101825.19;5056421;28;45585;-84
2022/06/14 03:53:46;;;;;;;;;3.00;3.00;;;;;20.23;42.01;101794.91;5058063;28;45535;-84
2022/06/14 03:56:33;;;;;;;;;3.33;3.33;;;;;20.21;41.28;101799.56;5052298;28;45490;-84
2022/06/14 03:59:20;;;;;;;;;4.33;3.00;;;;;20.29;41.40;101822.53;5056081;28;45482;-84
2022/06/14 04:02:14;;;;;;;;;4.00;2.00;;;;;20.30;42.16;101824.28;5058494;28;45508;-84
2022/06/14 04:05:06;;;;;;;;;6.00;4.67;;;;;20.29;42.38;101827.97;5064641;28;45609;-85
2022/06/14 04:07:55;;;;;;;;;3.33;2.67;;;;;20.21;42.06;101812.25;5057542;28;46494;-84
2022/06/14 04:10:41;;;;;;;;;4.33;4.33;;;;;20.24;42.32;101829.13;5053135;28;45441;-85
2022/06/14 04:13:28;;;;;;;;;3.00;3.00;;;;;20.20;41.92;101819.47;5055979;28;45513;-85
2022/06/14 04:16:20;;;;;;;;;4.00;4.00;;;;;20.20;42.31;101824.03;5057813;28;45473;-84
2022/06/14 04:19:05;;;;;;;;;4.00;2.00;;;;;20.10;42.40;101831.91;5051988;28;47072;-85
2022/06/14 04:21:55;;;;;;;;;3.67;3.00;;;;;19.99;42.31;101807.38;5054501;28;45724;-85
2022/06/14 04:24:42;;;;;;;;;3.00;3.00;;;;;20.09;42.45;101832.88;5058135;28;45490;-85
2022/06/14 04:27:33;;;;;;;;;4.00;4.00;;;;;20.08;42.82;101832.97;5051436;28;45472;-85
2022/06/14 04:30:20;;;;;;;;;5.00;5.00;;;;;20.11;42.46;101822.81;5045220;28;46598;-85
2022/06/14 04:33:18;;;;;;;;;4.00;4.00;;;;;20.04;43.18;101826.88;5057897;28;45528;-85
2022/06/14 04:35:55;;;;;;;;;2.33;2.33;;;;;20.06;42.50;101822.22;5056497;28;45629;-84
2022/06/14 04:38:30;;;;;;;;;4.00;4.00;;;;;19.98;42.85;101817.34;5053478;28;45408;-84
2022/06/14 04:41:04;;;;;;;;;5.00;5.00;;;;;20.02;42.67;101823.44;5057653;28;47287;-84
2022/06/14 04:43:39;;;;;;;;;3.00;3.00;;;;;19.85;42.92;101793.91;5056706;28;45524;-84
2022/06/14 04:46:19;;;;;;;;;4.00;4.00;;;;;19.89;43.13;101804.41;5056966;28;45562;-84
2022/06/14 04:48:52;;;;;;;;;3.33;2.67;;;;;19.93;42.79;101802.41;5057508;28;45550;-84
2022/06/14 04:51:59;;;;;;;;;4.33;4.33;;;;;20.04;42.51;101816.06;5056604;28;46182;-84
2022/06/14 04:54:28;;;;;;;;;9.00;3.33;;;;;19.97;42.96;101803.91;5050990;28;45443;-85
2022/06/14 04:57:16;;;;;;;;;4.00;4.00;;;;;20.01;43.24;101814.41;5050496;28;45789;-85
2022/06/14 04:59:47;;;;;;;;;4.67;4.00;;;;;20.03;43.07;101814.34;5057656;28;45419;-85
2022/06/14 05:02:13;;;;;;;;;4.33;4.33;;;;;19.99;43.38;101813.69;5054988;28;46470;-85
2022/06/14 05:04:50;;;;;;;;;4.33;1.33;;;;;19.98;43.52;101816.47;5057494;28;45481;-84
2022/06/14 05:07:31;;;;;;;;;4.00;4.00;;;;;19.97;43.09;101807.50;5057671;28;45499;-85
2022/06/14 05:10:04;;;;;;;;;3.33;3.33;;;;;19.91;42.91;101793.50;5059415;28;45442;-85
2022/06/14 05:12:41;;;;;;;;;7.67;4.67;;;;;20.01;42.75;101813.56;5056088;28;46151;-85
2022/06/14 05:15:21;;;;;;;;;2.67;2.67;;;;;20.06;42.52;101814.13;5038598;28;45917;-85
2022/06/14 05:18:01;;;;;;;;;4.33;3.00;;;;;20.04;43.34;101818.75;5056958;28;45347;-84
2022/06/14 05:20:56;;;;;;;;;3.00;3.00;;;;;20.00;43.37;101817.25;5056848;28;45626;-85
2022/06/14 05:23:26;;;;;;;;;4.33;4.33;;;;;19.89;43.18;101790.88;5052733;28;46389;-85
2022/06/14 05:25:51;;;;;;;;;3.00;3.00;;;;;20.05;43.05;101811.53;5057462;28;45387;-84
2022/06/14 05:28:32;;;;;;;;;5.00;3.67;;;;;19.88;43.62;101780.16;5055913;28;45332;-85
2022/06/14 05:31:11;;;;;;;;;5.67;3.67;;;;;20.05;42.97;101806.97;5057030;28;45577;-84
2022/06/14 05:33:42;;;;;;;;;4.00;4.00;;;;;20.04;43.46;101813.34;5056248;28;46272;-83
2022/06/14 05:36:17;;;;;;;;;5.33;5.33;;;;;19.91;43.72;101782.69;5056646;28;45459;-83
2022/06/14 05:38:54;;;;;;;;;11.67;8.33;;;;;20.00;44.26;101814.53;5056668;28;45598;-82
2022/06/14 05:41:42;;;;;;;;;2.33;2.33;;;;;19.94;43.54;101794.16;5052537;28;45260;-82
2022/06/14 05:44:30;;;;;;;;;5.00;5.00;;;;;20.15;43.73;101826.19;5055902;28;46415;-82
2022/06/14 05:47:02;;;;;;;;;3.67;3.67;;;;;20.02;43.17;101799.94;5053738;28;45642;-80
2022/06/14 05:49:41;;;;;;;;;5.00;4.33;;;;;20.03;43.01;101795.38;5055359;28;45520;-81
2022/06/14 05:52:20;;;;;;;;;4.00;4.00;;;;;20.22;42.91;101822.09;5056726;28;46283;-81
2022/06/14 05:55:10;;;;;;;;;4.00;4.00;;;;;20.21;43.54;101820.38;5053904;28;46281;-81
2022/06/14 05:57:35;;;;;;;;;5.67;3.00;;;;;20.18;43.02;101817.84;5055409;28;48488;-81
2022/06/14 06:00:23;;;;;;;;;6.00;4.00;;;;;20.21;42.85;101817.66;5056532;28;45403;-81
2022/06/14 06:03:09;;;;;;;;;3.00;3.00;;;;;20.20;43.33;101810.50;5056102;28;45683;-82
2022/06/14 06:05:57;;;;;;;;;6.33;4.00;;;;;20.24;43.43;101809.31;5056172;28;47396;-80
2022/06/14 06:08:30;;;;;;;;;5.00;3.67;;;;;20.22;43.25;101817.53;5049126;28;45444;-81
2022/06/14 06:11:05;;;;;;;;;4.33;4.33;;;;;20.28;42.94;101810.00;5048036;28;46433;-82
2022/06/14 06:13:39;;;;;;;;;6.00;5.00;;;;;20.12;42.94;101772.25;5055213;28;45434;-80
2022/06/14 06:16:07;;;;;;;;;7.00;5.33;;;;;20.42;43.42;101801.78;5054089;28;45533;-80
2022/06/14 06:19:11;;;;;;;;;5.33;5.33;;;;;20.43;42.56;101804.38;5050545;28;46319;-80
2022/06/14 06:21:45;;;;;;;;;3.00;3.00;;;;;20.33;42.17;101775.34;5447661;22;45608;-82
2022/06/14 06:24:23;;;;;;;;;7.67;7.67;;;;;20.51;42.63;101802.97;5079636;27;45523;-82
2022/06/14 06:27:00;;;;;;;;;7.00;4.67;;;;;20.46;42.22;101792.47;5096659;27;45459;-79
2022/06/14 06:29:44;;;;;;;;;6.33;5.00;;;;;20.53;42.79;101787.50;5097853;27;45377;-79
2022/06/14 06:32:10;;;;;;;;;5.00;5.00;;;;;20.57;42.48;101797.19;5101479;27;45374;-79
2022/06/14 06:34:36;;;;;;;;;5.00;4.67;;;;;20.58;42.76;101790.78;5101060;27;45433;-78
2022/06/14 06:37:11;;;;;;;;;3.33;3.33;;;;;20.57;42.53;101789.06;5097425;27;45475;-79
2022/06/14 06:39:47;;;;;;;;;6.00;6.00;;;;;20.67;42.50;101792.84;5094254;27;45565;-79
2022/06/14 06:42:31;;;;;;;;;2.67;2.67;;;;;20.60;42.02;101772.59;5097614;27;45413;-78
2022/06/14 06:45:20;;;;;;;;;5.00;4.00;;;;;20.86;42.29;101790.63;5098110;27;45622;-79
2022/06/14 06:47:51;;;;;;;;;4.00;4.00;;;;;20.93;41.48;101796.47;5096791;27;45461;-80
2022/06/14 06:50:20;;;;;;;;;5.00;5.00;;;;;21.01;42.01;101785.06;5096909;27;45419;-79
2022/06/14 06:53:10;;;;;;;;;3.67;3.67;;;;;21.07;41.24;101793.66;5099870;27;45448;-79
2022/06/14 06:56:13;;;;;;;;;5.33;4.00;;;;;21.18;41.92;101789.28;5089048;27;45597;-78
2022/06/14 06:58:56;;;;;;;;;6.33;4.00;;;;;21.22;41.03;101786.25;5064782;27;47420;-81
2022/06/14 07:01:27;;;;;;;;;3.33;3.33;;;;;21.28;41.83;101779.50;5091414;27;45563;-81
2022/06/14 07:04:03;;;;;;;;;5.00;5.00;;;;;21.12;41.06;101758.06;5096170;27;45441;-81
2022/06/14 07:06:39;;;;;;;;;4.00;2.00;;;;;21.23;40.71;101765.41;5099597;27;45393;-82
2022/06/14 07:09:11;;;;;;;;;3.00;2.00;;;;;21.31;41.51;101767.59;5095248;27;45502;-81
2022/06/14 07:11:44;;;;;;;;;2.67;2.67;;;;;21.26;41.47;101768.78;5108201;27;45478;-83
2022/06/14 07:14:27;;;;;;;;;3.33;3.33;;;;;21.26;41.80;101776.06;5106633;27;45690;-82
2022/06/14 07:17:02;;;;;;;;;4.33;4.00;;;;;21.13;41.55;101756.22;5100076;27;45562;-83
2022/06/14 07:19:30;;;;;;;;;3.00;3.00;;;;;21.11;41.01;101774.44;5103933;27;45646;-84
2022/06/14 07:22:09;;;;;;;;;3.00;3.00;;;;;21.07;42.33;101769.25;5100250;27;45597;-82
2022/06/14 07:24:58;;;;;;;;;5.00;5.00;;;;;20.90;42.56;101742.47;5090312;27;45471;-83
2022/06/14 07:27:31;;;;;;;;;6.00;4.33;;;;;21.21;42.88;101775.50;5105687;27;45876;-84
2022/06/14 07:30:07;;;;;;;;;4.67;3.67;;;;;21.37;42.46;101765.25;5093493;27;45486;-82
2022/06/14 07:32:46;;;;;;;;;3.33;3.33;;;;;21.52;42.06;101766.03;5093080;27;45560;-81
2022/06/14 07:35:15;;;;;;;;;4.67;3.67;;;;;21.52;41.04;101741.63;5098417;27;45421;-82
2022/06/14 07:37:43;;;;;;;;;6.33;4.00;;;;;21.75;41.47;101753.47;5102545;27;45552;-83
2022/06/14 07:40:17;;;;;;;;;9.67;7.33;;;;;21.87;40.92;101751.69;5097555;27;46961;-84
2022/06/14 07:43:13;;;;;;;;;5.00;5.00;;;;;22.01;42.33;101748.78;5100165;27;45465;-83
2022/06/14 07:45:41;;;;;;;;;3.33;3.33;;;;;22.12;41.57;101742.53;5089668;27;45796;-83
2022/06/14 07:48:17;;;;;;;;;4.33;3.67;;;;;22.28;40.89;101756.69;5090497;27;45762;-84
2022/06/14 07:51:01;;;;;;;;;4.00;4.00;;;;;22.38;40.89;101751.41;5090203;27;45485;-83
2022/06/14 07:53:40;;;;;;;;;7.67;5.67;;;;;22.37;40.29;101733.38;5100078;27;45367;-83
2022/06/14 07:56:12;;;;;;;;;3.00;3.00;;;;;22.58;40.63;101743.56;5101254;27;45506;-83
2022/06/14 07:58:42;;;;;;;;;5.00;4.00;;;;;22.67;41.94;101740.13;5099326;27;45593;-83
2022/06/14 08:01:20;;;;;;;;;5.33;4.33;;;;;22.73;39.86;101732.34;5096925;27;46418;-82
2022/06/14 08:04:03;;;;;;;;;5.67;3.67;;;;;22.82;40.68;101724.44;5101615;27;45388;-82
2022/06/14 08:06:41;;;;;;;;;2.00;2.00;;;;;22.78;38.35;101702.09;5096768;27;45427;-82
2022/06/14 08:09:26;;;;;;;;;2.00;2.00;;;;;22.95;38.72;101727.91;5096455;27;45643;-83
2022/06/14 08:11:57;;;;;;;;;11.67;11.67;;;;;23.00;37.98;101725.72;5092681;27;45432;-82
2022/06/14 08:14:44;;;;;;;;;6.33;4.00;;;;;22.79;37.95;101689.38;5100448;27;45478;-82
2022/06/14 08:17:12;;;;;;;;;5.33;5.33;;;;;22.90;38.49;101695.66;5098500;27;45378;-82
2022/06/14 08:20:05;;;;;;;;;5.00;5.00;;;;;23.12;38.48;101704.81;5101318;27;45449;-81
2022/06/14 08:22:42;;;;;;;;;4.00;4.00;;;;;23.26;38.40;101714.56;5100542;27;46751;-82
2022/06/14 08:25:14;;;;;;;;;4.00;4.00;;;;;23.42;36.71;101719.63;5100715;27;45357;-82
2022/06/14 08:27:48;;;;;;;;;5.33;5.33;;;;;23.42;37.03;101684.25;5105596;27;45459;-83
2022/06/14 08:30:38;;;;;;;;;2.00;2.00;;;;;23.89;37.21;101704.78;5100524;27;45581;-82
2022/06/14 08:33:20;;;;;;;;;5.33;5.33;;;;;24.35;36.49;101691.75;5100835;27;46415;-83
2022/06/14 08:35:52;;;;;;;;;4.67;4.67;;;;;24.55;35.42;101690.06;5101250;27;45534;-83
2022/06/14 08:38:39;;;;;;;;;3.00;3.00;;;;;24.81;34.71;101691.31;5099145;27;45357;-82
2022/06/14 08:41:10;;;;;;;;;3.67;3.33;;;;;25.12;35.21;101699.47;5096897;27;45579;-83
2022/06/14 08:43:49;;;;;;;;;2.00;2.00;;;;;25.32;35.10;101697.72;5097346;27;47559;-81
2022/06/14 08:47:08;;;;;;;;;3.33;3.00;;;;;25.54;33.83;101709.41;5100719;27;45458;-83
2022/06/14 08:49:59;;;;;;;;;3.00;3.00;;;;;25.56;33.61;101699.19;5009043;28;45599;-82
2022/06/14 08:52:51;;;;;;;;;2.67;2.67;;;;;25.62;33.62;101702.22;5015683;28;45417;-84
2022/06/14 08:55:38;;;;;;;;;5.00;3.00;;;;;25.64;33.03;101697.50;4979848;28;47500;-83
2022/06/14 08:58:17;;;;;;;;;4.00;4.00;;;;;25.76;32.98;101703.69;4975574;28;45730;-83
2022/06/14 09:01:07;;;;;;;;;8.33;5.33;;;;;25.93;33.83;101693.06;4970828;28;45527;-83
2022/06/14 09:03:47;;;;;;;;;4.67;3.00;;;;;26.22;34.28;101699.38;4971087;28;45501;-83
2022/06/14 09:06:53;;;;;;;;;3.00;3.00;;;;;26.45;32.29;101690.84;4974991;28;45924;-83
2022/06/14 09:09:36;;;;;;;;;3.00;3.00;;;;;26.82;31.74;101688.16;4978995;28;45603;-83
2022/06/14 09:12:28;;;;;;;;;3.67;3.67;;;;;27.21;31.55;101687.16;4973448;28;45436;-83
2022/06/14 09:15:35;;;;;;;;;4.33;4.00;;;;;27.64;33.77;101694.63;4974300;28;45530;-84
2022/06/14 09:18:16;;;;;;;;;6.67;6.00;;;;;28.06;31.29;101685.78;4976499;28;45464;-82
2022/06/14 09:20:59;;;;;;;;;3.67;3.33;;;;;28.34;29.01;101689.25;4974666;28;45480;-83
2022/06/14 09:23:52;;;;;;;;;3.00;3.00;;;;;28.60;29.38;101688.44;5015276;28;45628;-83
2022/06/14 09:26:47;;;;;;;;;7.33;3.33;;;;;28.96;30.31;101685.53;5055120;28;45506;-84
2022/06/14 09:29:31;;;;;;;;;4.00;4.00;;;;;29.20;29.31;101679.31;5058874;28;45441;-84
2022/06/14 09:32:24;;;;;;;;;2.67;2.67;;;;;29.51;31.22;101671.31;5075215;27;45453;-83
2022/06/14 09:35:13;;;;;;;;;4.33;3.00;;;;;29.86;31.19;101672.94;5097424;27;45417;-83
2022/06/14 09:38:17;;;;;;;;;5.33;4.00;;;;;30.00;30.46;101671.41;5102690;27;45603;-83
2022/06/14 09:41:05;;;;;;;;;3.67;2.67;;;;;30.27;27.82;101674.84;5093246;27;45387;-83
2022/06/14 09:44:06;;;;;;;;;5.00;4.00;;;;;30.53;29.22;101673.75;5097528;27;45435;-83
2022/06/14 09:46:44;;;;;;;;;3.00;3.00;;;;;30.87;27.54;101684.53;5081618;27;45447;-83
2022/06/14 09:49:33;;;;;;;;;3.67;3.67;;;;;31.24;29.48;101677.47;5100122;27;45641;-83
2022/06/14 09:52:22;;;;;;;;;5.00;3.67;;;;;31.59;27.13;101678.00;5101907;27;46251;-84
2022/06/14 09:54:56;;;;;;;;;4.67;4.00;;;;;32.03;26.45;101672.69;5098328;27;45481;-83
2022/06/14 09:57:31;;;;;;;;;4.00;4.00;;;;;32.39;27.15;101661.78;5105697;27;45531;-82
2022/06/14 10:00:14;;;;;;;;;4.33;3.00;;;;;32.77;28.68;101675.53;5088545;27;45393;-83
2022/06/14 10:03:07;;;;;;;;;3.00;3.00;;;;;33.13;27.50;101668.38;5103102;27;45471;-83
2022/06/14 10:05:56;;;;;;;;;3.33;3.33;;;;;33.41;27.74;101658.31;5098371;27;45493;-83
2022/06/14 10:08:51;;;;;;;;;13.67;11.00;;;;;33.39;25.58;101657.66;5097371;27;45536;-84
2022/06/14 10:11:43;;;;;;;;;8.67;7.67;;;;;33.56;26.47;101660.16;5104561;27;45464;-83
2022/06/14 10:21:40;;;;;;;;;8.00;5.67;;;;;33.75;26.55;101625.50;5244935;22;45548;-84
2022/06/14 10:24:40;;;;;;;;;5.67;5.33;;;;;33.97;25.92;101651.22;5065010;28;45647;-84
2022/06/14 10:30:16;;;;;;;;;4.67;4.67;;;;;33.86;25.88;101613.91;5073578;28;45406;-83
2022/06/14 10:33:14;;;;;;;;;2.67;2.67;;;;;33.85;23.11;101648.13;5076214;28;45429;-80
2022/06/14 10:35:45;;;;;;;;;6.33;5.67;;;;;33.45;23.79;101620.06;5049019;28;45706;-81
2022/06/14 10:38:29;;;;;;;;;5.00;4.33;;;;;33.38;24.13;101644.00;5075047;28;46345;-82
2022/06/14 10:41:16;;;;;;;;;3.67;3.00;;;;;32.93;25.38;101607.34;5052410;28;45431;-81
2022/06/14 10:43:51;;;;;;;;;6.00;5.00;;;;;32.95;24.74;101628.19;5076068;28;45792;-82
2022/06/14 10:46:28;;;;;;;;;6.33;4.33;;;;;32.99;25.98;101639.69;5072562;28;45355;-82
2022/06/14 10:49:57;;;;;;;;;7.00;6.00;;;;;33.00;25.40;101633.13;5074684;28;46201;-80
2022/06/14 10:53:00;;;;;;;;;5.00;5.00;;;;;33.11;24.70;101626.31;5042085;28;45491;-82
2022/06/14 10:55:47;;;;;;;;;3.33;3.33;;;;;33.14;24.06;101614.84;5073623;28;45642;-81
2022/06/14 10:58:41;;;;;;;;;4.00;3.00;;;;;33.19;25.92;101618.72;5072071;28;45422;-81
2022/06/14 11:01:24;;;;;;;;;3.00;3.00;;;;;33.18;24.79;101628.06;5072572;28;47213;-82
2022/06/14 11:03:59;;;;;;;;;4.33;4.33;;;;;33.06;25.74;101621.34;5070728;28;45446;-82
2022/06/14 11:07:02;;;;;;;;;19.00;16.33;;;;;32.86;26.12;101614.69;5072972;28;45328;-83
2022/06/14 11:09:30;;;;;;;;;10.33;10.00;;;;;32.73;25.75;101607.06;5068295;28;48771;-83
2022/06/14 11:12:08;;;;;;;;;8.67;8.67;;;;;32.66;26.47;101601.47;5072307;28;45628;-83
2022/06/14 11:14:45;;;;;;;;;7.00;7.00;;;;;32.61;25.91;101606.72;5069886;28;45609;-82
2022/06/14 11:17:43;;;;;;;;;7.00;7.00;;;;;32.42;25.69;101601.75;5073609;28;45519;-83
2022/06/14 11:21:02;;;;;;;;;7.00;7.00;;;;;32.37;26.72;101592.13;4992561;28;46952;-85
2022/06/14 11:23:42;;;;;;;;;5.67;5.67;;;;;32.32;27.12;101578.03;4952828;28;45930;-82
2022/06/14 11:26:17;;;;;;;;;10.33;8.00;;;;;32.34;27.53;101570.44;4947842;28;45438;-84
2022/06/14 11:28:55;;;;;;;;;8.67;7.00;;;;;32.30;27.90;101573.78;4952774;28;45486;-83
2022/06/14 11:31:29;;;;;;;;;7.67;3.67;;;;;32.24;27.01;101575.41;4949281;28;45594;-84
2022/06/14 11:34:19;;;;;;;;;6.00;6.00;;;;;32.11;27.70;101567.75;4951164;28;45584;-83
2022/06/14 11:37:10;;;;;;;;;9.33;7.00;;;;;31.81;27.79;101558.56;4947746;28;45411;-82
2022/06/14 11:39:57;;;;;;;;;6.33;6.33;;;;;31.80;28.20;101558.78;4944233;28;46005;-83
2022/06/14 11:42:30;;;;;;;;;5.33;5.33;;;;;31.51;28.50;101519.03;4949499;28;45602;-83
2022/06/14 11:45:20;;;;;;;;;6.33;6.33;;;;;31.57;28.91;101548.63;4948690;28;46561;-83
2022/06/14 11:48:17;;;;;;;;;7.67;6.00;;;;;31.47;28.73;101548.03;4952066;28;45563;-83
2022/06/14 11:50:48;;;;;;;;;8.00;6.00;;;;;31.37;28.59;101548.22;4951677;28;45571;-82
2022/06/14 11:53:19;;;;;;;;;6.00;6.00;;;;;31.24;29.51;101543.34;4951802;28;45620;-81
2022/06/14 11:55:52;;;;;;;;;5.67;4.67;;;;;31.12;29.33;101548.44;4939836;28;45585;-81
2022/06/14 11:58:21;;;;;;;;;6.33;6.33;;;;;30.60;29.94;101542.69;5041195;28;45407;-82
2022/06/14 12:01:00;;;;;;;;;30.33;25.00;;;;;30.27;31.41;101540.94;5054714;28;45586;-83
2022/06/14 12:03:28;;;;;;;;;21.67;17.67;;;;;30.18;29.10;101541.97;5054326;28;46145;-82
2022/06/14 12:06:12;;;;;;;;;30.33;23.67;;;;;30.14;31.27;101539.75;5052597;28;46203;-83
2022/06/14 12:08:59;;;;;;;;;28.67;25.67;;;;;30.08;33.21;101536.66;5048972;28;45655;-84
2022/06/14 12:11:30;;;;;;;;;28.00;22.00;;;;;29.72;29.76;101489.50;5050300;28;45624;-85
2022/06/14 12:14:42;;;;;;;;;31.33;27.67;;;;;29.85;31.31;101533.81;5057749;28;45490;-85
2022/06/14 12:17:22;;;;;;;;;23.67;22.33;;;;;29.76;33.65;101523.84;4952585;28;45629;-85
2022/06/14 12:19:55;;;;;;;;;23.00;20.00;;;;;29.59;32.28;101514.72;4958409;28;45471;-83
2022/06/14 12:22:26;;;;;;;;;19.67;16.00;;;;;29.31;32.29;101518.84;4972102;28;45613;-84
2022/06/14 12:27:44;;;;;;;;;17.00;15.33;;;;;28.87;31.78;101447.75;4974072;28;45910;-84
2022/06/14 12:30:13;;;;;;;;;11.00;11.00;;;;;28.45;31.89;101388.31;4975884;28;45476;-84
2022/06/14 12:32:46;;;;;;;;;17.00;13.00;;;;;29.23;33.22;101504.09;4975458;28;45561;-84
2022/06/14 12:35:15;;;;;;;;;15.00;13.00;;;;;29.19;33.51;101502.72;4975505;28;45564;-83
2022/06/14 12:38:01;;;;;;;;;12.00;9.00;;;;;29.17;33.62;101495.69;4976038;28;47383;-84
2022/06/14 12:40:45;;;;;;;;;9.33;7.67;;;;;29.15;30.16;101494.97;4975877;28;45386;-84